Overview Statistics Trail Chart Weather Telemetry Raw packets
 

This is the latest recevied weather packets stored in our database for station/object IZ2WYA-13. If no packets are shown the sender has not sent any weather packets the latest 10 day(s).

<< 7 8 9 10 11 12 13 >>
Time Temp. Humidity Pressure Rain* Wind** Luminosity Snow
1788176717 27.22° C 49% 1016.3 hPa - - - -
1788174916 26.67° C 51% 1016.5 hPa - - - -
1788173115 26.11° C 53% 1016.8 hPa - - - -
1788171490 25.56° C 52% 1017 hPa - - - -
1788169689 25° C 53% 1017.4 hPa - - - -
1788167887 24.44° C 54% 1017.8 hPa - - - -
1788166086 23.89° C 55% 1018 hPa - - - -
1788164285 23.89° C 56% 1018.1 hPa - - - -
1788162483 23.33° C 58% 1018.3 hPa - - - -
1788160684 23.33° C 58% 1018.6 hPa - - - -
1788158881 22.78° C 58% 1018.7 hPa - - - -
1788157080 22.22° C 61% 1018.8 hPa - - - -
1788155278 22.22° C 62% 1018.8 hPa - - - -
1788153477 22.22° C 61% 1018.8 hPa - - - -
1788151676 22.22° C 58% 1018.6 hPa - - - -
1788149874 22.22° C 59% 1018.3 hPa - - - -
1788148073 22.22° C 61% 1018.5 hPa - - - -
1788146272 22.78° C 58% 1018.5 hPa - - - -
1788144470 22.78° C 60% 1018.7 hPa - - - -
1788142669 23.33° C 57% 1018.6 hPa - - - -
1788140867 23.33° C 58% 1018.8 hPa - - - -
1788139066 23.89° C 56% 1018.5 hPa - - - -
1788137265 23.89° C 56% 1018.5 hPa - - - -
1788135464 24.44° C 55% 1018.5 hPa - - - -
1788133662 24.44° C 54% 1018.6 hPa - - - -

* Rain since midnight (hover to see other rain measurements)
** Current wind speed in m/s (hover to see current wind gust speed)